PWSweather.com
Personal Weather Stations
Station Observations

PoschiavoCH

Lat: 46.31962499999999, Lon: 10.066551000000004

Elevation: 3517

Station Type: WH 1080

http://www.meteoposchiavo.com

High Low Average
Temperature 55.0°F12.8°C 44.0°F6.7°C 48.6°F9.2°C
Dew Point 49.9°F9.9°C 43.2°F6.2°C 46.4°F8.0°C
Winds 1.2 mph 1.9 kmh Calm Calm Calm SECalm SE
Wind Gusts 2.3 mph3.7 kmh -- --
Humidity 99% 74% 92%
Pressure 26.32 in891.3 mb 26.23 in888.3 mb -
Precipitation 0.20 in5.1 mm - -
Hour Temp Dew Point Humidity Winds Wind Gusts Pressure Precip Precip Rate Daily Precip Total
12:00 AM 46.0°F7.8°C 44.6°F7.0°C 95% Calm Calm -- 26.32 in891.3 mb - 0.01 in0.3 mm 0.01 in0.3 mm
12:10 AM 46.0°F7.8°C 44.9°F7.2°C 96% Calm Calm -- 26.32 in891.3 mb - 0.01 in0.3 mm 0.01 in0.3 mm
12:15 AM 46.0°F7.8°C 44.9°F7.2°C 96% Calm Calm -- 26.32 in891.3 mb - 0.01 in0.3 mm 0.01 in0.3 mm
12:20 AM 46.0°F7.8°C 44.9°F7.2°C 96% Calm Calm -- 26.31 in891.0 mb - 0.01 in0.3 mm 0.01 in0.3 mm
12:25 AM 46.0°F7.8°C 44.9°F7.2°C 96% Calm Calm -- 26.32 in891.3 mb - 0.01 in0.3 mm 0.01 in0.3 mm
12:30 AM 46.0°F7.8°C 44.9°F7.2°C 96% Calm Calm -- 26.31 in891.0 mb - 0.01 in0.3 mm 0.01 in0.3 mm
12:35 AM 46.0°F7.8°C 44.9°F7.2°C 96% Calm Calm -- 26.31 in891.0 mb - 0.01 in0.3 mm 0.01 in0.3 mm
12:40 AM 46.0°F7.8°C 44.9°F7.2°C 96% Calm Calm -- 26.31 in891.0 mb - 0.01 in0.3 mm 0.01 in0.3 mm
12:45 AM 46.0°F7.8°C 44.9°F7.2°C 96% Calm Calm -- 26.31 in891.0 mb - 0.01 in0.3 mm 0.01 in0.3 mm
12:50 AM 46.0°F7.8°C 44.9°F7.2°C 96% Calm Calm -- 26.31 in891.0 mb - 0.01 in0.3 mm 0.01 in0.3 mm
12:55 AM 46.0°F7.8°C 44.9°F7.2°C 96% Calm Calm -- 26.31 in891.0 mb - 0.01 in0.3 mm 0.02 in0.5 mm
01:00 AM 46.0°F7.8°C 44.9°F7.2°C 96% Calm Calm -- 26.31 in891.0 mb - 0.01 in0.3 mm 0.02 in0.5 mm
01:10 AM 45.0°F7.2°C 43.7°F6.5°C 95% Calm Calm -- 26.31 in891.0 mb - 0.01 in0.3 mm 0.02 in0.5 mm
01:15 AM 45.3°F7.4°C 44.0°F6.7°C 95% Calm Calm -- 26.31 in891.0 mb - 0.01 in0.3 mm 0.02 in0.5 mm
01:20 AM 46.0°F7.8°C 44.9°F7.2°C 96% Calm Calm -- 26.30 in890.6 mb - 0.01 in0.3 mm 0.02 in0.5 mm
01:25 AM 46.0°F7.8°C 44.9°F7.2°C 96% Calm Calm -- 26.30 in890.6 mb - 0.01 in0.3 mm 0.02 in0.5 mm
01:30 AM 46.0°F7.8°C 44.9°F7.2°C 96% Calm Calm -- 26.30 in890.6 mb - 0.01 in0.3 mm 0.02 in0.5 mm
01:35 AM 46.0°F7.8°C 44.9°F7.2°C 96% Calm Calm -- 26.31 in891.0 mb - 0.02 in0.5 mm 0.03 in0.8 mm
01:40 AM 46.0°F7.8°C 44.9°F7.2°C 96% Calm Calm -- 26.30 in890.6 mb - 0.02 in0.5 mm 0.03 in0.8 mm
01:45 AM 46.0°F7.8°C 45.2°F7.3°C 97% Calm Calm -- 26.30 in890.6 mb - 0.02 in0.5 mm 0.03 in0.8 mm
01:50 AM 46.0°F7.8°C 45.2°F7.3°C 97% Calm Calm -- 26.31 in891.0 mb - 0.02 in0.5 mm 0.03 in0.8 mm
01:55 AM 46.0°F7.8°C 45.2°F7.3°C 97% Calm Calm -- 26.31 in891.0 mb - 0.01 in0.3 mm 0.03 in0.8 mm
02:00 AM 46.0°F7.8°C 45.2°F7.3°C 97% Calm Calm -- 26.30 in890.6 mb - 0.02 in0.5 mm 0.04 in1.0 mm
02:10 AM 46.0°F7.8°C 45.2°F7.3°C 97% Calm Calm -- 26.29 in890.3 mb - 0.02 in0.5 mm 0.04 in1.0 mm
02:15 AM 46.0°F7.8°C 45.2°F7.3°C 97% Calm Calm -- 26.29 in890.3 mb - 0.02 in0.5 mm 0.04 in1.0 mm
02:20 AM 46.0°F7.8°C 45.2°F7.3°C 97% Calm Calm -- 26.29 in890.3 mb - 0.02 in0.5 mm 0.04 in1.0 mm
02:25 AM 46.0°F7.8°C 45.2°F7.3°C 97% Calm Calm -- 26.29 in890.3 mb - 0.02 in0.5 mm 0.04 in1.0 mm
02:30 AM 46.0°F7.8°C 45.2°F7.3°C 97% Calm Calm -- 26.29 in890.3 mb - 0.02 in0.5 mm 0.04 in1.0 mm
02:35 AM 45.0°F7.2°C 44.2°F6.8°C 97% Calm Calm -- 26.28 in889.9 mb - 0.01 in0.3 mm 0.04 in1.0 mm
02:40 AM 45.0°F7.2°C 44.2°F6.8°C 97% Calm Calm -- 26.29 in890.3 mb - 0.01 in0.3 mm 0.04 in1.0 mm
02:45 AM 45.0°F7.2°C 44.2°F6.8°C 97% Calm Calm -- 26.28 in889.9 mb - 0.01 in0.3 mm 0.04 in1.0 mm
02:50 AM 45.0°F7.2°C 44.2°F6.8°C 97% Calm Calm -- 26.29 in890.3 mb - 0.01 in0.3 mm 0.04 in1.0 mm
02:55 AM 45.0°F7.2°C 44.2°F6.8°C 97% Calm Calm -- 26.29 in890.3 mb - 0.01 in0.3 mm 0.04 in1.0 mm
03:00 AM 45.0°F7.2°C 44.2°F6.8°C 97% Calm Calm -- 26.28 in889.9 mb - 0.00 in0.0 mm 0.04 in1.0 mm
03:10 AM 45.0°F7.2°C 44.2°F6.8°C 97% Calm Calm -- 26.27 in889.6 mb - 0.00 in0.0 mm 0.04 in1.0 mm
03:15 AM 45.0°F7.2°C 44.2°F6.8°C 97% Calm Calm -- 26.28 in889.9 mb - 0.00 in0.0 mm 0.04 in1.0 mm
03:20 AM 45.0°F7.2°C 44.5°F6.9°C 98% Calm Calm -- 26.28 in889.9 mb - 0.00 in0.0 mm 0.04 in1.0 mm
03:25 AM 45.0°F7.2°C 44.5°F6.9°C 98% Calm Calm -- 26.28 in889.9 mb - 0.00 in0.0 mm 0.04 in1.0 mm
03:30 AM 45.0°F7.2°C 44.5°F6.9°C 98% Calm Calm -- 26.28 in889.9 mb - 0.00 in0.0 mm 0.04 in1.0 mm
03:35 AM 45.0°F7.2°C 44.5°F6.9°C 98% Calm Calm -- 26.29 in890.3 mb - 0.00 in0.0 mm 0.04 in1.0 mm
03:40 AM 46.0°F7.8°C 45.5°F7.5°C 98% Calm Calm -- 26.28 in889.9 mb - 0.00 in0.0 mm 0.04 in1.0 mm
03:45 AM 46.0°F7.8°C 45.5°F7.5°C 98% Calm Calm -- 26.28 in889.9 mb - 0.00 in0.0 mm 0.04 in1.0 mm
03:50 AM 46.0°F7.8°C 45.5°F7.5°C 98% Calm Calm -- 26.28 in889.9 mb - 0.00 in0.0 mm 0.04 in1.0 mm
03:55 AM 46.0°F7.8°C 45.5°F7.5°C 98% Calm Calm -- 26.28 in889.9 mb - 0.01 in0.3 mm 0.05 in1.3 mm
04:00 AM 46.0°F7.8°C 45.5°F7.5°C 98% Calm Calm -- 26.28 in889.9 mb - 0.01 in0.3 mm 0.05 in1.3 mm
04:10 AM 46.0°F7.8°C 45.5°F7.5°C 98% Calm Calm -- 26.28 in889.9 mb - 0.01 in0.3 mm 0.05 in1.3 mm
04:15 AM 45.0°F7.2°C 44.5°F6.9°C 98% Calm Calm -- 26.27 in889.6 mb - 0.01 in0.3 mm 0.05 in1.3 mm
04:20 AM 45.0°F7.2°C 44.5°F6.9°C 98% Calm Calm -- 26.27 in889.6 mb - 0.01 in0.3 mm 0.05 in1.3 mm
04:25 AM 45.0°F7.2°C 44.5°F6.9°C 98% Calm Calm -- 26.28 in889.9 mb - 0.01 in0.3 mm 0.05 in1.3 mm
04:30 AM 45.0°F7.2°C 44.5°F6.9°C 98% Calm Calm -- 26.28 in889.9 mb - 0.01 in0.3 mm 0.05 in1.3 mm
04:35 AM 44.9°F7.2°C 44.4°F6.9°C 98% Calm Calm -- 26.28 in889.9 mb - 0.01 in0.3 mm 0.05 in1.3 mm
04:40 AM 44.0°F6.7°C 43.2°F6.2°C 97% Calm Calm -- 26.27 in889.6 mb - 0.01 in0.3 mm 0.05 in1.3 mm
04:45 AM 44.0°F6.7°C 43.2°F6.2°C 97% Calm Calm -- 26.27 in889.6 mb - 0.01 in0.3 mm 0.05 in1.3 mm
04:50 AM 44.0°F6.7°C 43.2°F6.2°C 97% Calm Calm -- 26.26 in889.3 mb - 0.01 in0.3 mm 0.05 in1.3 mm
04:55 AM 44.0°F6.7°C 43.5°F6.4°C 98% Calm Calm -- 26.26 in889.3 mb - 0.00 in0.0 mm 0.05 in1.3 mm
05:00 AM 45.0°F7.2°C 44.5°F6.9°C 98% Calm Calm -- 26.26 in889.3 mb - 0.00 in0.0 mm 0.05 in1.3 mm
05:10 AM 44.0°F6.7°C 43.2°F6.2°C 97% Calm Calm -- 26.26 in889.3 mb - 0.00 in0.0 mm 0.05 in1.3 mm
05:15 AM 46.0°F7.8°C 45.5°F7.5°C 98% Calm Calm -- 26.28 in889.9 mb - 0.00 in0.0 mm 0.05 in1.3 mm
05:20 AM 44.0°F6.7°C 43.2°F6.2°C 97% Calm Calm -- 26.26 in889.3 mb - 0.00 in0.0 mm 0.05 in1.3 mm
05:25 AM 44.0°F6.7°C 43.2°F6.2°C 97% Calm Calm -- 26.26 in889.3 mb - 0.00 in0.0 mm 0.05 in1.3 mm
05:30 AM 44.0°F6.7°C 43.2°F6.2°C 97% Calm Calm -- 26.26 in889.3 mb - 0.00 in0.0 mm 0.05 in1.3 mm
05:35 AM 44.0°F6.7°C 43.2°F6.2°C 97% Calm Calm -- 26.26 in889.3 mb - 0.00 in0.0 mm 0.05 in1.3 mm
05:40 AM 44.0°F6.7°C 43.2°F6.2°C 97% Calm Calm -- 26.26 in889.3 mb - 0.00 in0.0 mm 0.05 in1.3 mm
05:45 AM 44.0°F6.7°C 43.2°F6.2°C 97% Calm Calm -- 26.26 in889.3 mb - 0.00 in0.0 mm 0.05 in1.3 mm
05:50 AM 45.0°F7.2°C 44.5°F6.9°C 98% Calm Calm -- 26.27 in889.6 mb - 0.00 in0.0 mm 0.05 in1.3 mm
05:55 AM 45.0°F7.2°C 44.2°F6.8°C 97% Calm Calm -- 26.26 in889.3 mb - 0.00 in0.0 mm 0.05 in1.3 mm
06:00 AM 45.0°F7.2°C 44.2°F6.8°C 97% Calm Calm -- 26.26 in889.3 mb - 0.00 in0.0 mm 0.05 in1.3 mm
06:10 AM 45.0°F7.2°C 44.2°F6.8°C 97% Calm Calm -- 26.27 in889.6 mb - 0.00 in0.0 mm 0.05 in1.3 mm
06:15 AM 45.0°F7.2°C 44.2°F6.8°C 97% Calm Calm -- 26.27 in889.6 mb - 0.00 in0.0 mm 0.05 in1.3 mm
06:20 AM 45.0°F7.2°C 44.2°F6.8°C 97% Calm Calm -- 26.27 in889.6 mb - 0.00 in0.0 mm 0.05 in1.3 mm
06:25 AM 46.0°F7.8°C 45.2°F7.3°C 97% Calm Calm -- 26.26 in889.3 mb - 0.00 in0.0 mm 0.05 in1.3 mm
06:30 AM 46.0°F7.8°C 45.2°F7.3°C 97% Calm Calm -- 26.26 in889.3 mb - 0.00 in0.0 mm 0.05 in1.3 mm
06:35 AM 46.0°F7.8°C 45.2°F7.3°C 97% Calm Calm -- 26.26 in889.3 mb - 0.00 in0.0 mm 0.05 in1.3 mm
06:40 AM 46.0°F7.8°C 45.2°F7.3°C 97% Calm Calm -- 26.27 in889.6 mb - 0.00 in0.0 mm 0.05 in1.3 mm
06:45 AM 46.0°F7.8°C 45.2°F7.3°C 97% Calm Calm -- 26.26 in889.3 mb - 0.00 in0.0 mm 0.05 in1.3 mm
06:50 AM 46.0°F7.8°C 45.2°F7.3°C 97% Calm Calm -- 26.26 in889.3 mb - 0.00 in0.0 mm 0.05 in1.3 mm
06:55 AM 46.0°F7.8°C 44.9°F7.2°C 96% Calm Calm -- 26.25 in888.9 mb - 0.00 in0.0 mm 0.05 in1.3 mm
07:00 AM 47.0°F8.3°C 45.9°F7.7°C 96% Calm Calm -- 26.26 in889.3 mb - 0.00 in0.0 mm 0.05 in1.3 mm
07:10 AM 47.0°F8.3°C 45.6°F7.6°C 95% Calm Calm -- 26.25 in888.9 mb - 0.00 in0.0 mm 0.05 in1.3 mm
07:15 AM 47.0°F8.3°C 45.4°F7.4°C 94% Calm Calm -- 26.25 in888.9 mb - 0.00 in0.0 mm 0.05 in1.3 mm
07:20 AM 47.0°F8.3°C 45.1°F7.3°C 93% Calm Calm -- 26.25 in888.9 mb - 0.00 in0.0 mm 0.05 in1.3 mm
07:25 AM 48.0°F8.9°C 46.4°F8.0°C 94% Calm Calm -- 26.25 in888.9 mb - 0.00 in0.0 mm 0.05 in1.3 mm
07:30 AM 48.0°F8.9°C 46.1°F7.8°C 93% Calm Calm -- 26.24 in888.6 mb - 0.00 in0.0 mm 0.05 in1.3 mm
07:35 AM 48.0°F8.9°C 45.8°F7.7°C 92% 1.2 mph SSW1.9 kmh SSW 1.2 mph1.9 kmh 26.25 in888.9 mb - 0.00 in0.0 mm 0.05 in1.3 mm
07:40 AM 48.0°F8.9°C 45.5°F7.5°C 91% 1.2 mph WSW1.9 kmh WSW 1.2 mph1.9 kmh 26.25 in888.9 mb - 0.00 in0.0 mm 0.05 in1.3 mm
07:45 AM 48.0°F8.9°C 45.2°F7.3°C 90% Calm Calm -- 26.24 in888.6 mb - 0.00 in0.0 mm 0.05 in1.3 mm
07:50 AM 49.0°F9.4°C 45.3°F7.4°C 87% Calm Calm -- 26.24 in888.6 mb - 0.00 in0.0 mm 0.05 in1.3 mm
07:55 AM 50.0°F10.0°C 46.6°F8.1°C 88% Calm Calm -- 26.24 in888.6 mb - 0.00 in0.0 mm 0.05 in1.3 mm
08:00 AM 50.0°F10.0°C 45.7°F7.6°C 85% Calm Calm -- 26.24 in888.6 mb - 0.00 in0.0 mm 0.05 in1.3 mm
08:10 AM 50.0°F10.0°C 46.3°F7.9°C 87% Calm Calm 1.2 mph1.9 kmh 26.24 in888.6 mb - 0.00 in0.0 mm 0.05 in1.3 mm
08:15 AM 50.0°F10.0°C 47.2°F8.4°C 90% Calm Calm 1.2 mph1.9 kmh 26.23 in888.3 mb - 0.00 in0.0 mm 0.05 in1.3 mm
08:20 AM 49.0°F9.4°C 46.2°F7.9°C 90% 1.2 mph W1.9 kmh W 1.2 mph1.9 kmh 26.24 in888.6 mb - 0.00 in0.0 mm 0.05 in1.3 mm
08:25 AM 49.0°F9.4°C 45.3°F7.4°C 87% Calm Calm -- 26.24 in888.6 mb - 0.00 in0.0 mm 0.05 in1.3 mm
08:30 AM 49.0°F9.4°C 45.9°F7.7°C 89% Calm Calm -- 26.25 in888.9 mb - 0.00 in0.0 mm 0.05 in1.3 mm
08:35 AM 49.0°F9.4°C 45.9°F7.7°C 89% Calm Calm -- 26.25 in888.9 mb - 0.00 in0.0 mm 0.05 in1.3 mm
08:40 AM 49.0°F9.4°C 45.9°F7.7°C 89% Calm Calm -- 26.25 in888.9 mb - 0.00 in0.0 mm 0.05 in1.3 mm
08:45 AM 49.0°F9.4°C 43.7°F6.5°C 82% Calm Calm -- 26.26 in889.3 mb - 0.00 in0.0 mm 0.05 in1.3 mm
08:50 AM 50.0°F10.0°C 46.0°F7.8°C 86% Calm Calm -- 26.24 in888.6 mb - 0.00 in0.0 mm 0.05 in1.3 mm
08:55 AM 51.0°F10.6°C 47.6°F8.7°C 88% Calm Calm -- 26.24 in888.6 mb - 0.00 in0.0 mm 0.05 in1.3 mm
09:00 AM 51.0°F10.6°C 46.6°F8.1°C 85% Calm Calm -- 26.25 in888.9 mb - 0.01 in0.3 mm 0.06 in1.5 mm
09:10 AM 51.0°F10.6°C 46.0°F7.8°C 83% Calm Calm -- 26.25 in888.9 mb - 0.01 in0.3 mm 0.06 in1.5 mm
09:15 AM 51.0°F10.6°C 46.3°F7.9°C 84% Calm Calm -- 26.25 in888.9 mb - 0.01 in0.3 mm 0.06 in1.5 mm
09:20 AM 51.0°F10.6°C 45.7°F7.6°C 82% Calm Calm -- 26.25 in888.9 mb - 0.01 in0.3 mm 0.06 in1.5 mm
09:25 AM 51.0°F10.6°C 46.6°F8.1°C 85% Calm Calm -- 26.24 in888.6 mb - 0.01 in0.3 mm 0.06 in1.5 mm
09:30 AM 51.0°F10.6°C 47.6°F8.7°C 88% Calm Calm -- 26.25 in888.9 mb - 0.01 in0.3 mm 0.06 in1.5 mm
09:35 AM 51.0°F10.6°C 47.9°F8.8°C 89% Calm Calm -- 26.25 in888.9 mb - 0.01 in0.3 mm 0.06 in1.5 mm
09:40 AM 51.0°F10.6°C 47.0°F8.3°C 86% Calm Calm -- 26.25 in888.9 mb - 0.01 in0.3 mm 0.06 in1.5 mm
09:45 AM 51.0°F10.6°C 47.6°F8.7°C 88% Calm Calm -- 26.24 in888.6 mb - 0.01 in0.3 mm 0.06 in1.5 mm
09:50 AM 52.0°F11.1°C 48.6°F9.2°C 88% Calm Calm -- 26.24 in888.6 mb - 0.01 in0.3 mm 0.06 in1.5 mm
09:55 AM 52.0°F11.1°C 48.6°F9.2°C 88% Calm Calm -- 26.24 in888.6 mb - 0.02 in0.5 mm 0.07 in1.8 mm
10:00 AM 52.0°F11.1°C 48.6°F9.2°C 88% Calm Calm -- 26.24 in888.6 mb - 0.02 in0.5 mm 0.07 in1.8 mm
10:10 AM 53.0°F11.7°C 49.8°F9.9°C 89% Calm Calm -- 26.24 in888.6 mb - 0.01 in0.3 mm 0.07 in1.8 mm
10:15 AM 53.0°F11.7°C 48.6°F9.2°C 85% Calm Calm -- 26.24 in888.6 mb - 0.01 in0.3 mm 0.07 in1.8 mm
10:20 AM 53.0°F11.7°C 48.3°F9.1°C 84% Calm Calm -- 26.23 in888.3 mb - 0.01 in0.3 mm 0.07 in1.8 mm
10:25 AM 53.0°F11.7°C 48.6°F9.2°C 85% Calm Calm -- 26.24 in888.6 mb - 0.01 in0.3 mm 0.07 in1.8 mm
10:30 AM 53.0°F11.7°C 47.7°F8.7°C 82% Calm Calm -- 26.23 in888.3 mb - 0.01 in0.3 mm 0.07 in1.8 mm
10:35 AM 53.0°F11.7°C 47.3°F8.5°C 81% Calm Calm -- 26.23 in888.3 mb - 0.01 in0.3 mm 0.07 in1.8 mm
10:40 AM 53.0°F11.7°C 48.0°F8.9°C 83% Calm Calm -- 26.23 in888.3 mb - 0.01 in0.3 mm 0.07 in1.8 mm
10:45 AM 53.0°F11.7°C 46.7°F8.2°C 79% Calm Calm -- 26.23 in888.3 mb - 0.01 in0.3 mm 0.07 in1.8 mm
10:50 AM 53.0°F11.7°C 47.0°F8.3°C 80% Calm Calm 1.2 mph1.9 kmh 26.23 in888.3 mb - 0.02 in0.5 mm 0.08 in2.0 mm
10:55 AM 53.0°F11.7°C 46.7°F8.2°C 79% Calm Calm -- 26.23 in888.3 mb - 0.01 in0.3 mm 0.08 in2.0 mm
11:00 AM 53.0°F11.7°C 47.7°F8.7°C 82% Calm Calm -- 26.23 in888.3 mb - 0.01 in0.3 mm 0.08 in2.0 mm
11:10 AM 52.0°F11.1°C 46.3°F7.9°C 81% Calm Calm -- 26.23 in888.3 mb - 0.01 in0.3 mm 0.08 in2.0 mm
11:15 AM 51.0°F10.6°C 46.6°F8.1°C 85% Calm Calm -- 26.24 in888.6 mb - 0.01 in0.3 mm 0.08 in2.0 mm
11:20 AM 51.0°F10.6°C 47.6°F8.7°C 88% Calm Calm 1.2 mph1.9 kmh 26.25 in888.9 mb - 0.01 in0.3 mm 0.08 in2.0 mm
11:25 AM 50.0°F10.0°C 47.5°F8.6°C 91% 1.2 mph WSW1.9 kmh WSW 2.3 mph3.7 kmh 26.24 in888.6 mb - 0.02 in0.5 mm 0.09 in2.3 mm
11:30 AM 50.0°F10.0°C 47.2°F8.4°C 90% 1.2 mph WNW1.9 kmh WNW 2.3 mph3.7 kmh 26.24 in888.6 mb - 0.02 in0.5 mm 0.09 in2.3 mm
11:35 AM 50.0°F10.0°C 46.9°F8.3°C 89% 1.2 mph NW1.9 kmh NW 1.2 mph1.9 kmh 26.24 in888.6 mb - 0.02 in0.5 mm 0.09 in2.3 mm
11:40 AM 50.0°F10.0°C 47.2°F8.4°C 90% 1.2 mph NE1.9 kmh NE 1.2 mph1.9 kmh 26.24 in888.6 mb - 0.03 in0.8 mm 0.10 in2.5 mm
11:45 AM 50.0°F10.0°C 47.5°F8.6°C 91% Calm Calm -- 26.24 in888.6 mb - 0.04 in1.0 mm 0.11 in2.8 mm
11:50 AM 50.0°F10.0°C 47.5°F8.6°C 91% Calm Calm -- 26.25 in888.9 mb - 0.03 in0.8 mm 0.11 in2.8 mm
11:55 AM 50.0°F10.0°C 47.8°F8.8°C 92% Calm Calm -- 26.25 in888.9 mb - 0.04 in1.0 mm 0.12 in3.0 mm
12:00 PM 50.0°F10.0°C 47.5°F8.6°C 91% Calm Calm -- 26.24 in888.6 mb - 0.04 in1.0 mm 0.12 in3.0 mm
12:10 PM 50.0°F10.0°C 47.5°F8.6°C 91% Calm Calm -- 26.25 in888.9 mb - 0.04 in1.0 mm 0.12 in3.0 mm
12:15 PM 50.0°F10.0°C 47.2°F8.4°C 90% Calm Calm -- 26.24 in888.6 mb - 0.05 in1.3 mm 0.13 in3.3 mm
12:20 PM 50.0°F10.0°C 47.5°F8.6°C 91% Calm Calm -- 26.26 in889.3 mb - 0.05 in1.3 mm 0.13 in3.3 mm
12:25 PM 50.0°F10.0°C 47.8°F8.8°C 92% Calm Calm -- 26.25 in888.9 mb - 0.04 in1.0 mm 0.13 in3.3 mm
12:30 PM 50.0°F10.0°C 47.2°F8.4°C 90% 1.2 mph NE1.9 kmh NE 1.2 mph1.9 kmh 26.25 in888.9 mb - 0.04 in1.0 mm 0.13 in3.3 mm
12:35 PM 50.0°F10.0°C 46.6°F8.1°C 88% 1.2 mph NNE1.9 kmh NNE 1.2 mph1.9 kmh 26.25 in888.9 mb - 0.04 in1.0 mm 0.13 in3.3 mm
12:40 PM 50.0°F10.0°C 47.2°F8.4°C 90% Calm Calm -- 26.26 in889.3 mb - 0.04 in1.0 mm 0.14 in3.6 mm
12:45 PM 50.0°F10.0°C 46.0°F7.8°C 86% Calm Calm -- 26.25 in888.9 mb - 0.03 in0.8 mm 0.14 in3.6 mm
12:50 PM 51.0°F10.6°C 47.9°F8.8°C 89% 1.2 mph SE1.9 kmh SE 1.2 mph1.9 kmh 26.25 in888.9 mb - 0.03 in0.8 mm 0.14 in3.6 mm
12:55 PM 51.0°F10.6°C 46.3°F7.9°C 84% Calm Calm -- 26.24 in888.6 mb - 0.02 in0.5 mm 0.14 in3.6 mm
01:00 PM 51.5°F10.8°C 47.5°F8.6°C 86% Calm Calm -- 26.25 in888.9 mb - 0.02 in0.5 mm 0.14 in3.6 mm
01:10 PM 53.0°F11.7°C 48.0°F8.9°C 83% Calm Calm -- 26.25 in888.9 mb - 0.03 in0.8 mm 0.15 in3.8 mm
01:15 PM 53.0°F11.7°C 47.7°F8.7°C 82% Calm Calm -- 26.24 in888.6 mb - 0.02 in0.5 mm 0.15 in3.8 mm
01:20 PM 54.0°F12.2°C 49.3°F9.6°C 84% Calm Calm -- 26.24 in888.6 mb - 0.02 in0.5 mm 0.15 in3.8 mm
01:25 PM 54.0°F12.2°C 48.6°F9.2°C 82% Calm Calm -- 26.25 in888.9 mb - 0.02 in0.5 mm 0.15 in3.8 mm
01:30 PM 54.0°F12.2°C 49.3°F9.6°C 84% Calm Calm -- 26.25 in888.9 mb - 0.02 in0.5 mm 0.15 in3.8 mm
01:35 PM 53.0°F11.7°C 49.2°F9.6°C 87% Calm Calm -- 26.25 in888.9 mb - 0.02 in0.5 mm 0.15 in3.8 mm
01:40 PM 54.0°F12.2°C 49.3°F9.6°C 84% Calm Calm -- 26.24 in888.6 mb - 0.01 in0.3 mm 0.15 in3.8 mm
01:45 PM 53.0°F11.7°C 47.7°F8.7°C 82% Calm Calm 1.2 mph1.9 kmh 26.24 in888.6 mb - 0.01 in0.3 mm 0.15 in3.8 mm
01:50 PM 54.0°F12.2°C 49.3°F9.6°C 84% Calm Calm -- 26.24 in888.6 mb - 0.01 in0.3 mm 0.15 in3.8 mm
01:55 PM 54.0°F12.2°C 49.6°F9.8°C 85% Calm Calm -- 26.24 in888.6 mb - 0.01 in0.3 mm 0.15 in3.8 mm
02:00 PM 54.0°F12.2°C 49.3°F9.6°C 84% Calm Calm -- 26.24 in888.6 mb - 0.01 in0.3 mm 0.15 in3.8 mm
02:10 PM 55.0°F12.8°C 49.3°F9.6°C 81% Calm Calm -- 26.24 in888.6 mb - 0.00 in0.0 mm 0.15 in3.8 mm
02:15 PM 55.0°F12.8°C 49.9°F9.9°C 83% Calm Calm -- 26.24 in888.6 mb - 0.00 in0.0 mm 0.15 in3.8 mm
02:20 PM 55.0°F12.8°C 49.9°F9.9°C 83% Calm Calm -- 26.24 in888.6 mb - 0.00 in0.0 mm 0.15 in3.8 mm
02:25 PM 55.0°F12.8°C 48.9°F9.4°C 80% Calm Calm -- 26.24 in888.6 mb - 0.00 in0.0 mm 0.15 in3.8 mm
02:30 PM 55.0°F12.8°C 48.3°F9.1°C 78% Calm Calm -- 26.24 in888.6 mb - 0.00 in0.0 mm 0.15 in3.8 mm
02:35 PM 54.0°F12.2°C 45.9°F7.7°C 74% Calm Calm -- 26.24 in888.6 mb - 0.00 in0.0 mm 0.15 in3.8 mm
02:40 PM 54.0°F12.2°C 47.6°F8.7°C 79% Calm Calm -- 26.24 in888.6 mb - 0.00 in0.0 mm 0.15 in3.8 mm
02:45 PM 53.0°F11.7°C 47.0°F8.3°C 80% Calm Calm -- 26.24 in888.6 mb - 0.00 in0.0 mm 0.15 in3.8 mm
02:50 PM 53.0°F11.7°C 47.7°F8.7°C 82% Calm Calm 1.2 mph1.9 kmh 26.24 in888.6 mb - 0.01 in0.3 mm 0.16 in4.1 mm
02:55 PM 53.0°F11.7°C 47.7°F8.7°C 82% Calm Calm -- 26.23 in888.3 mb - 0.01 in0.3 mm 0.16 in4.1 mm
03:00 PM 53.0°F11.7°C 48.0°F8.9°C 83% Calm Calm -- 26.23 in888.3 mb - 0.01 in0.3 mm 0.16 in4.1 mm
03:10 PM 53.0°F11.7°C 47.7°F8.7°C 82% Calm Calm -- 26.24 in888.6 mb - 0.01 in0.3 mm 0.16 in4.1 mm
03:15 PM 52.0°F11.1°C 47.3°F8.5°C 84% Calm Calm -- 26.25 in888.9 mb - 0.01 in0.3 mm 0.16 in4.1 mm
03:20 PM 53.0°F11.7°C 48.9°F9.4°C 86% 1.2 mph WSW1.9 kmh WSW 2.3 mph3.7 kmh 26.25 in888.9 mb - 0.01 in0.3 mm 0.16 in4.1 mm
03:25 PM 52.0°F11.1°C 47.3°F8.5°C 84% 1.2 mph W1.9 kmh W 1.2 mph1.9 kmh 26.24 in888.6 mb - 0.01 in0.3 mm 0.16 in4.1 mm
03:30 PM 51.8°F11.0°C 47.2°F8.4°C 84% 1.2 mph W1.9 kmh W 1.2 mph1.9 kmh 26.24 in888.6 mb - 0.01 in0.3 mm 0.16 in4.1 mm
03:35 PM 51.0°F10.6°C 45.7°F7.6°C 82% Calm Calm -- 26.23 in888.3 mb - 0.01 in0.3 mm 0.16 in4.1 mm
03:40 PM 51.0°F10.6°C 47.0°F8.3°C 86% Calm Calm -- 26.24 in888.6 mb - 0.01 in0.3 mm 0.16 in4.1 mm
03:45 PM 52.0°F11.1°C 47.9°F8.8°C 86% Calm Calm -- 26.25 in888.9 mb - 0.01 in0.3 mm 0.16 in4.1 mm
03:50 PM 52.0°F11.1°C 47.0°F8.3°C 83% Calm Calm 1.2 mph1.9 kmh 26.24 in888.6 mb - 0.00 in0.0 mm 0.16 in4.1 mm
03:55 PM 52.0°F11.1°C 47.0°F8.3°C 83% Calm Calm 1.2 mph1.9 kmh 26.24 in888.6 mb - 0.01 in0.3 mm 0.17 in4.3 mm
04:00 PM 52.0°F11.1°C 47.0°F8.3°C 83% Calm Calm -- 26.24 in888.6 mb - 0.01 in0.3 mm 0.17 in4.3 mm
04:10 PM 53.0°F11.7°C 48.0°F8.9°C 83% Calm Calm -- 26.24 in888.6 mb - 0.01 in0.3 mm 0.17 in4.3 mm
04:15 PM 52.0°F11.1°C 47.3°F8.5°C 84% 1.2 mph WSW1.9 kmh WSW 1.2 mph1.9 kmh 26.24 in888.6 mb - 0.01 in0.3 mm 0.17 in4.3 mm
04:20 PM 52.0°F11.1°C 47.3°F8.5°C 84% 1.2 mph W1.9 kmh W 1.2 mph1.9 kmh 26.24 in888.6 mb - 0.01 in0.3 mm 0.17 in4.3 mm
04:25 PM 51.1°F10.6°C 47.1°F8.4°C 86% Calm Calm 1.2 mph1.9 kmh 26.25 in888.9 mb - 0.01 in0.3 mm 0.17 in4.3 mm
04:30 PM 51.0°F10.6°C 47.0°F8.3°C 86% Calm Calm 1.2 mph1.9 kmh 26.25 in888.9 mb - 0.01 in0.3 mm 0.17 in4.3 mm
04:35 PM 51.0°F10.6°C 47.6°F8.7°C 88% Calm Calm 1.2 mph1.9 kmh 26.25 in888.9 mb - 0.01 in0.3 mm 0.17 in4.3 mm
04:40 PM 51.0°F10.6°C 47.9°F8.8°C 89% Calm Calm -- 26.25 in888.9 mb - 0.01 in0.3 mm 0.17 in4.3 mm
04:45 PM 50.0°F10.0°C 46.9°F8.3°C 89% 1.2 mph W1.9 kmh W 1.2 mph1.9 kmh 26.26 in889.3 mb - 0.01 in0.3 mm 0.17 in4.3 mm
04:50 PM 51.0°F10.6°C 48.8°F9.3°C 92% Calm Calm -- 26.25 in888.9 mb - 0.02 in0.5 mm 0.18 in4.6 mm
04:55 PM 50.5°F10.3°C 48.3°F9.1°C 92% Calm Calm -- 26.25 in888.9 mb - 0.01 in0.3 mm 0.18 in4.6 mm
05:00 PM 50.0°F10.0°C 47.8°F8.8°C 92% Calm Calm -- 26.25 in888.9 mb - 0.01 in0.3 mm 0.18 in4.6 mm
05:10 PM 50.0°F10.0°C 48.3°F9.1°C 94% Calm Calm -- 26.25 in888.9 mb - 0.02 in0.5 mm 0.19 in4.8 mm
05:15 PM 50.0°F10.0°C 47.8°F8.8°C 92% Calm Calm -- 26.25 in888.9 mb - 0.02 in0.5 mm 0.19 in4.8 mm
05:20 PM 50.6°F10.3°C 48.4°F9.1°C 92% Calm Calm -- 26.25 in888.9 mb - 0.02 in0.5 mm 0.19 in4.8 mm
05:25 PM 51.0°F10.6°C 48.8°F9.3°C 92% Calm Calm -- 26.25 in888.9 mb - 0.02 in0.5 mm 0.19 in4.8 mm
05:30 PM 51.0°F10.6°C 48.8°F9.3°C 92% Calm Calm -- 26.24 in888.6 mb - 0.02 in0.5 mm 0.19 in4.8 mm
05:35 PM 52.0°F11.1°C 49.2°F9.6°C 90% Calm Calm -- 26.23 in888.3 mb - 0.02 in0.5 mm 0.19 in4.8 mm
05:40 PM 52.0°F11.1°C 49.2°F9.6°C 90% Calm Calm -- 26.24 in888.6 mb - 0.02 in0.5 mm 0.19 in4.8 mm
05:45 PM 52.0°F11.1°C 49.5°F9.7°C 91% Calm Calm -- 26.24 in888.6 mb - 0.02 in0.5 mm 0.19 in4.8 mm
05:50 PM 51.9°F11.1°C 49.4°F9.7°C 91% Calm Calm -- 26.24 in888.6 mb - 0.01 in0.3 mm 0.19 in4.8 mm
05:55 PM 51.0°F10.6°C 48.2°F9.0°C 90% Calm Calm -- 26.24 in888.6 mb - 0.01 in0.3 mm 0.19 in4.8 mm
06:00 PM 51.0°F10.6°C 48.2°F9.0°C 90% Calm Calm -- 26.24 in888.6 mb - 0.01 in0.3 mm 0.19 in4.8 mm
06:10 PM 51.0°F10.6°C 49.3°F9.6°C 94% Calm Calm -- 26.24 in888.6 mb - 0.00 in0.0 mm 0.19 in4.8 mm
06:15 PM 50.2°F10.1°C 48.5°F9.2°C 94% Calm Calm -- 26.24 in888.6 mb - 0.00 in0.0 mm 0.19 in4.8 mm
06:20 PM 50.0°F10.0°C 48.3°F9.1°C 94% Calm Calm 1.2 mph1.9 kmh 26.24 in888.6 mb - 0.00 in0.0 mm 0.19 in4.8 mm
06:25 PM 50.0°F10.0°C 48.3°F9.1°C 94% 1.2 mph NNW1.9 kmh NNW 1.2 mph1.9 kmh 26.25 in888.9 mb - 0.00 in0.0 mm 0.19 in4.8 mm
06:30 PM 50.0°F10.0°C 48.6°F9.2°C 95% Calm Calm 1.2 mph1.9 kmh 26.24 in888.6 mb - 0.00 in0.0 mm 0.19 in4.8 mm
06:35 PM 50.0°F10.0°C 48.9°F9.4°C 96% Calm Calm 1.2 mph1.9 kmh 26.24 in888.6 mb - 0.00 in0.0 mm 0.19 in4.8 mm
06:40 PM 50.0°F10.0°C 48.9°F9.4°C 96% 1.2 mph NNW1.9 kmh NNW 1.2 mph1.9 kmh 26.25 in888.9 mb - 0.00 in0.0 mm 0.19 in4.8 mm
06:45 PM 49.0°F9.4°C 48.2°F9.0°C 97% Calm Calm 1.2 mph1.9 kmh 26.25 in888.9 mb - 0.00 in0.0 mm 0.19 in4.8 mm
06:50 PM 49.0°F9.4°C 48.2°F9.0°C 97% Calm Calm 1.2 mph1.9 kmh 26.25 in888.9 mb - 0.00 in0.0 mm 0.19 in4.8 mm
06:55 PM 49.0°F9.4°C 48.2°F9.0°C 97% Calm Calm 1.2 mph1.9 kmh 26.25 in888.9 mb - 0.00 in0.0 mm 0.19 in4.8 mm
07:00 PM 49.0°F9.4°C 48.2°F9.0°C 97% 1.2 mph NW1.9 kmh NW 1.2 mph1.9 kmh 26.25 in888.9 mb - 0.00 in0.0 mm 0.19 in4.8 mm
07:10 PM 48.0°F8.9°C 47.2°F8.4°C 97% Calm Calm 1.2 mph1.9 kmh 26.25 in888.9 mb - 0.01 in0.3 mm 0.20 in5.1 mm
07:15 PM 48.0°F8.9°C 47.2°F8.4°C 97% Calm Calm -- 26.25 in888.9 mb - 0.01 in0.3 mm 0.20 in5.1 mm
07:20 PM 48.0°F8.9°C 47.2°F8.4°C 97% Calm Calm 1.2 mph1.9 kmh 26.25 in888.9 mb - 0.01 in0.3 mm 0.20 in5.1 mm
07:25 PM 48.0°F8.9°C 47.2°F8.4°C 97% Calm Calm 1.2 mph1.9 kmh 26.26 in889.3 mb - 0.01 in0.3 mm 0.20 in5.1 mm
07:30 PM 48.0°F8.9°C 47.2°F8.4°C 97% Calm Calm -- 26.25 in888.9 mb - 0.01 in0.3 mm 0.20 in5.1 mm
07:35 PM 48.0°F8.9°C 47.2°F8.4°C 97% Calm Calm -- 26.26 in889.3 mb - 0.01 in0.3 mm 0.20 in5.1 mm
07:40 PM 48.0°F8.9°C 47.2°F8.4°C 97% Calm Calm -- 26.26 in889.3 mb - 0.01 in0.3 mm 0.20 in5.1 mm
07:45 PM 48.0°F8.9°C 47.2°F8.4°C 97% Calm Calm 1.2 mph1.9 kmh 26.26 in889.3 mb - 0.01 in0.3 mm 0.20 in5.1 mm
07:50 PM 48.0°F8.9°C 47.2°F8.4°C 97% Calm Calm 1.2 mph1.9 kmh 26.26 in889.3 mb - 0.01 in0.3 mm 0.20 in5.1 mm
07:55 PM 48.0°F8.9°C 47.2°F8.4°C 97% 1.2 mph N1.9 kmh N 1.2 mph1.9 kmh 26.26 in889.3 mb - 0.01 in0.3 mm 0.20 in5.1 mm
08:00 PM 48.0°F8.9°C 47.2°F8.4°C 97% Calm Calm 1.2 mph1.9 kmh 26.26 in889.3 mb - 0.01 in0.3 mm 0.20 in5.1 mm
08:10 PM 47.0°F8.3°C 46.5°F8.1°C 98% 1.2 mph WNW1.9 kmh WNW 2.3 mph3.7 kmh 26.26 in889.3 mb - 0.00 in0.0 mm 0.20 in5.1 mm
08:15 PM 47.0°F8.3°C 46.5°F8.1°C 98% Calm Calm 1.2 mph1.9 kmh 26.27 in889.6 mb - 0.00 in0.0 mm 0.20 in5.1 mm
08:20 PM 47.0°F8.3°C 46.5°F8.1°C 98% Calm Calm 1.2 mph1.9 kmh 26.27 in889.6 mb - 0.00 in0.0 mm 0.20 in5.1 mm
08:25 PM 47.0°F8.3°C 46.5°F8.1°C 98% Calm Calm -- 26.27 in889.6 mb - 0.00 in0.0 mm 0.20 in5.1 mm
08:30 PM 47.0°F8.3°C 46.5°F8.1°C 98% 1.2 mph NNW1.9 kmh NNW 1.2 mph1.9 kmh 26.27 in889.6 mb - 0.00 in0.0 mm 0.20 in5.1 mm
08:35 PM 47.0°F8.3°C 46.5°F8.1°C 98% Calm Calm 1.2 mph1.9 kmh 26.27 in889.6 mb - 0.00 in0.0 mm 0.20 in5.1 mm
08:40 PM 47.0°F8.3°C 46.5°F8.1°C 98% Calm Calm -- 26.27 in889.6 mb - 0.00 in0.0 mm 0.20 in5.1 mm
08:45 PM 47.0°F8.3°C 46.5°F8.1°C 98% 1.2 mph W1.9 kmh W 1.2 mph1.9 kmh 26.27 in889.6 mb - 0.00 in0.0 mm 0.20 in5.1 mm
08:50 PM 47.0°F8.3°C 46.7°F8.2°C 99% Calm Calm 1.2 mph1.9 kmh 26.27 in889.6 mb - 0.00 in0.0 mm 0.20 in5.1 mm
08:55 PM 47.0°F8.3°C 46.7°F8.2°C 99% Calm Calm 1.2 mph1.9 kmh 26.27 in889.6 mb - 0.00 in0.0 mm 0.20 in5.1 mm
09:00 PM 47.0°F8.3°C 46.7°F8.2°C 99% 1.2 mph NNE1.9 kmh NNE 1.2 mph1.9 kmh 26.28 in889.9 mb - 0.00 in0.0 mm 0.20 in5.1 mm
09:10 PM 47.0°F8.3°C 46.7°F8.2°C 99% Calm Calm 1.2 mph1.9 kmh 26.28 in889.9 mb - 0.00 in0.0 mm 0.20 in5.1 mm
09:15 PM 47.0°F8.3°C 46.7°F8.2°C 99% 1.2 mph NNW1.9 kmh NNW 1.2 mph1.9 kmh 26.28 in889.9 mb - 0.00 in0.0 mm 0.20 in5.1 mm
09:20 PM 47.0°F8.3°C 46.7°F8.2°C 99% Calm Calm -- 26.28 in889.9 mb - 0.00 in0.0 mm 0.20 in5.1 mm
09:25 PM 47.0°F8.3°C 46.7°F8.2°C 99% Calm Calm -- 26.28 in889.9 mb - 0.00 in0.0 mm 0.20 in5.1 mm
09:30 PM 47.0°F8.3°C 46.5°F8.1°C 98% Calm Calm -- 26.27 in889.6 mb - 0.00 in0.0 mm 0.20 in5.1 mm
09:35 PM 47.0°F8.3°C 46.5°F8.1°C 98% Calm Calm -- 26.27 in889.6 mb - 0.00 in0.0 mm 0.20 in5.1 mm
09:40 PM 47.0°F8.3°C 46.5°F8.1°C 98% Calm Calm 1.2 mph1.9 kmh 26.27 in889.6 mb - 0.00 in0.0 mm 0.20 in5.1 mm
09:45 PM 47.0°F8.3°C 46.5°F8.1°C 98% Calm Calm -- 26.27 in889.6 mb - 0.00 in0.0 mm 0.20 in5.1 mm
09:50 PM 47.0°F8.3°C 46.7°F8.2°C 99% Calm Calm -- 26.28 in889.9 mb - 0.00 in0.0 mm 0.20 in5.1 mm
09:55 PM 47.0°F8.3°C 46.7°F8.2°C 99% Calm Calm -- 26.27 in889.6 mb - 0.00 in0.0 mm 0.20 in5.1 mm
10:00 PM 47.0°F8.3°C 46.7°F8.2°C 99% Calm Calm -- 26.27 in889.6 mb - 0.00 in0.0 mm 0.20 in5.1 mm
10:10 PM 46.0°F7.8°C 45.7°F7.6°C 99% Calm Calm -- 26.27 in889.6 mb - 0.00 in0.0 mm 0.20 in5.1 mm
10:15 PM 46.0°F7.8°C 45.7°F7.6°C 99% 1.2 mph WNW1.9 kmh WNW 1.2 mph1.9 kmh 26.27 in889.6 mb - 0.00 in0.0 mm 0.20 in5.1 mm
10:20 PM 46.0°F7.8°C 45.7°F7.6°C 99% Calm Calm -- 26.28 in889.9 mb - 0.00 in0.0 mm 0.20 in5.1 mm
10:25 PM 46.0°F7.8°C 45.7°F7.6°C 99% Calm Calm -- 26.28 in889.9 mb - 0.00 in0.0 mm 0.20 in5.1 mm
10:30 PM 46.0°F7.8°C 45.7°F7.6°C 99% Calm Calm -- 26.27 in889.6 mb - 0.00 in0.0 mm 0.20 in5.1 mm
10:35 PM 46.0°F7.8°C 45.7°F7.6°C 99% Calm Calm -- 26.27 in889.6 mb - 0.00 in0.0 mm 0.20 in5.1 mm
10:40 PM 46.0°F7.8°C 45.7°F7.6°C 99% Calm Calm -- 26.27 in889.6 mb - 0.00 in0.0 mm 0.20 in5.1 mm
10:45 PM 46.0°F7.8°C 45.7°F7.6°C 99% Calm Calm -- 26.28 in889.9 mb - 0.00 in0.0 mm 0.20 in5.1 mm
10:50 PM 46.0°F7.8°C 45.7°F7.6°C 99% Calm Calm -- 26.28 in889.9 mb - 0.00 in0.0 mm 0.20 in5.1 mm
10:55 PM 46.0°F7.8°C 45.7°F7.6°C 99% Calm Calm 1.2 mph1.9 kmh 26.27 in889.6 mb - 0.00 in0.0 mm 0.20 in5.1 mm
11:00 PM 46.0°F7.8°C 45.7°F7.6°C 99% Calm Calm 1.2 mph1.9 kmh 26.27 in889.6 mb - 0.00 in0.0 mm 2.20 in55.9 mm
11:10 PM 46.0°F7.8°C 45.7°F7.6°C 99% Calm Calm 1.2 mph1.9 kmh 26.27 in889.6 mb - 0.00 in0.0 mm 2.20 in55.9 mm
11:15 PM 46.0°F7.8°C 45.7°F7.6°C 99% Calm Calm 1.2 mph1.9 kmh 26.27 in889.6 mb - 0.00 in0.0 mm 2.20 in55.9 mm
11:20 PM 46.0°F7.8°C 45.7°F7.6°C 99% Calm Calm -- 26.27 in889.6 mb - 0.00 in0.0 mm 2.20 in55.9 mm
11:25 PM 46.0°F7.8°C 45.7°F7.6°C 99% Calm Calm 1.2 mph1.9 kmh 26.26 in889.3 mb - 0.00 in0.0 mm 2.20 in55.9 mm
11:30 PM 46.0°F7.8°C 45.7°F7.6°C 99% 1.2 mph N1.9 kmh N 1.2 mph1.9 kmh 26.26 in889.3 mb - 0.00 in0.0 mm 2.20 in55.9 mm
11:35 PM 46.0°F7.8°C 45.7°F7.6°C 99% Calm Calm -- 26.27 in889.6 mb - 0.01 in0.3 mm 0.01 in0.3 mm
11:40 PM 46.0°F7.8°C 45.7°F7.6°C 99% Calm Calm -- 26.27 in889.6 mb - 0.02 in0.5 mm 0.02 in0.5 mm
11:45 PM 46.0°F7.8°C 45.7°F7.6°C 99% Calm Calm -- 26.27 in889.6 mb - 0.02 in0.5 mm 0.02 in0.5 mm
11:50 PM 46.0°F7.8°C 45.7°F7.6°C 99% Calm Calm -- 26.27 in889.6 mb - 0.02 in0.5 mm 0.02 in0.5 mm
11:55 PM 46.0°F7.8°C 45.7°F7.6°C 99% Calm Calm -- 26.27 in889.6 mb - 0.02 in0.5 mm 0.02 in0.5 mm